createdAt,value
2019-03-27T00:00:33.458Z,0.80
2019-03-27T00:01:33.429Z,1.20
2019-03-27T00:02:33.384Z,1.40
2019-03-27T00:03:33.360Z,1.30
2019-03-27T00:04:33.334Z,1.50
2019-03-27T00:05:33.306Z,1.40
2019-03-27T00:06:33.318Z,3.80
2019-03-27T00:07:33.240Z,1.80
2019-03-27T00:08:33.196Z,3.10
2019-03-27T00:09:33.369Z,1.80
2019-03-27T00:10:33.111Z,1.10
2019-03-27T00:11:33.086Z,1.20
2019-03-27T00:12:33.060Z,4.50
2019-03-27T00:13:33.044Z,2.50
2019-03-27T00:14:32.991Z,1.60
2019-03-27T00:15:33.847Z,1.30
2019-03-27T00:16:32.926Z,0.80
2019-03-27T00:17:32.900Z,29.70
2019-03-27T00:18:32.864Z,148.80
2019-03-27T00:19:32.827Z,67.00
2019-03-27T00:20:32.782Z,61.50
2019-03-27T00:21:32.769Z,63.50
2019-03-27T00:22:32.776Z,46.90
2019-03-27T00:23:32.678Z,35.30
2019-03-27T00:24:32.729Z,26.90
2019-03-27T00:25:32.638Z,24.20
2019-03-27T00:26:32.585Z,23.50
2019-03-27T00:27:32.559Z,19.00
2019-03-27T00:28:32.529Z,17.60
2019-03-27T00:29:32.479Z,17.90
2019-03-27T00:30:32.441Z,14.80
2019-03-27T00:31:32.405Z,12.60
2019-03-27T00:32:32.396Z,11.00
2019-03-27T00:33:32.340Z,11.10
2019-03-27T00:34:32.303Z,11.80
2019-03-27T00:35:32.280Z,10.70
2019-03-27T00:36:32.660Z,8.90
2019-03-27T00:37:32.410Z,12.70
2019-03-27T00:38:32.200Z,7.30
2019-03-27T00:39:32.158Z,7.00
2019-03-27T00:40:32.131Z,9.50
2019-03-27T00:41:32.073Z,4.50
2019-03-27T00:42:32.190Z,4.00
2019-03-27T00:43:32.008Z,3.20
2019-03-27T00:44:31.978Z,3.30
2019-03-27T00:45:31.958Z,3.20
2019-03-27T00:46:31.928Z,2.00
2019-03-27T00:47:31.878Z,2.20
2019-03-27T00:48:31.858Z,2.30
2019-03-27T00:49:31.813Z,1.80
2019-03-27T00:50:31.810Z,1.50
2019-03-27T00:51:31.744Z,1.80
2019-03-27T00:52:31.724Z,2.20
2019-03-27T00:53:31.853Z,1.40
2019-03-27T00:54:31.643Z,1.40
2019-03-27T00:55:31.656Z,1.40
2019-03-27T00:56:31.570Z,1.50
2019-03-27T00:57:31.567Z,1.00
2019-03-27T00:58:31.509Z,1.50
2019-03-27T00:59:31.624Z,1.60
2019-03-27T01:00:31.462Z,1.50
2019-03-27T01:01:31.474Z,2.70
2019-03-27T01:02:31.412Z,1.20
2019-03-27T01:03:31.351Z,1.60
2019-03-27T01:04:31.341Z,1.40
2019-03-27T01:05:31.298Z,1.00
2019-03-27T01:06:31.263Z,1.30
2019-03-27T01:07:31.287Z,0.90
2019-03-27T01:08:31.209Z,1.60
2019-03-27T01:09:31.214Z,1.20
2019-03-27T01:10:31.125Z,0.90
2019-03-27T01:11:31.076Z,1.20
2019-03-27T01:12:31.053Z,0.90
2019-03-27T01:13:31.029Z,0.80
2019-03-27T01:14:31.004Z,3.20
2019-03-27T01:15:39.705Z,0.80
2019-03-27T01:16:30.902Z,0.80
2019-03-27T01:17:30.877Z,1.10
2019-03-27T01:18:31.142Z,1.10
2019-03-27T01:19:30.830Z,1.00
2019-03-27T01:20:30.794Z,1.00
2019-03-27T01:21:30.744Z,1.20
2019-03-27T01:22:30.725Z,0.80
2019-03-27T01:23:30.714Z,0.90
2019-03-27T01:24:30.973Z,80.60
2019-03-27T01:25:30.626Z,445.80
2019-03-27T01:26:30.624Z,492.70
2019-03-27T01:27:30.559Z,446.80
2019-03-27T01:28:30.545Z,327.50
2019-03-27T01:29:30.495Z,225.10
2019-03-27T01:30:30.694Z,135.50
2019-03-27T01:31:30.429Z,88.50
2019-03-27T01:32:30.456Z,56.90
2019-03-27T01:33:30.358Z,32.40
2019-03-27T01:34:30.304Z,23.10
2019-03-27T01:35:30.275Z,15.90
2019-03-27T01:36:30.235Z,10.60
2019-03-27T01:37:30.227Z,11.10
2019-03-27T01:38:30.266Z,5.70
2019-03-27T01:39:30.154Z,6.10
2019-03-27T01:40:30.136Z,4.40
2019-03-27T01:41:30.090Z,4.20
2019-03-27T01:42:30.039Z,3.20
2019-03-27T01:43:30.062Z,4.20
2019-03-27T01:44:30.009Z,3.10
2019-03-27T01:45:29.947Z,2.00
2019-03-27T01:46:29.912Z,2.20
2019-03-27T01:47:29.908Z,2.10
2019-03-27T01:48:29.841Z,2.20
2019-03-27T01:49:29.804Z,1.70
2019-03-27T01:50:29.776Z,1.80
2019-03-27T01:51:29.802Z,2.20
2019-03-27T01:52:29.807Z,2.00
2019-03-27T01:53:29.685Z,1.20
2019-03-27T01:54:29.664Z,1.40
2019-03-27T01:55:29.624Z,1.60
2019-03-27T01:56:29.590Z,1.50
2019-03-27T01:57:29.539Z,2.00
2019-03-27T01:58:29.524Z,1.20
2019-03-27T01:59:29.501Z,1.90
2019-03-27T02:00:29.488Z,1.30
2019-03-27T02:01:29.518Z,1.20
2019-03-27T02:02:29.419Z,1.40
2019-03-27T02:03:29.364Z,1.60
2019-03-27T02:04:29.328Z,1.40
2019-03-27T02:05:29.269Z,1.30
2019-03-27T02:06:29.259Z,1.00
2019-03-27T02:07:29.208Z,0.90
2019-03-27T02:08:29.188Z,221.50
2019-03-27T02:09:29.134Z,212.40
2019-03-27T02:10:29.144Z,269.90
2019-03-27T02:11:29.087Z,253.30
2019-03-27T02:12:29.064Z,218.50
2019-03-27T02:13:29.000Z,113.90
2019-03-27T02:14:28.990Z,82.90
2019-03-27T02:15:28.942Z,53.10
2019-03-27T02:16:28.998Z,33.10
2019-03-27T02:17:28.910Z,23.50
2019-03-27T02:18:28.864Z,17.00
2019-03-27T02:19:28.834Z,12.80
2019-03-27T02:20:28.795Z,11.90
2019-03-27T02:21:28.749Z,7.50
2019-03-27T02:22:28.735Z,7.00
2019-03-27T02:23:28.665Z,6.40
2019-03-27T02:24:28.659Z,4.00
2019-03-27T02:25:28.606Z,4.90
2019-03-27T02:26:28.634Z,3.30
2019-03-27T02:27:28.552Z,3.20
2019-03-27T02:28:28.521Z,4.70
2019-03-27T02:29:28.493Z,3.40
2019-03-27T02:30:28.449Z,2.10
2019-03-27T02:31:28.626Z,1.70
2019-03-27T02:32:28.366Z,3.90
2019-03-27T02:33:28.330Z,1.40
2019-03-27T02:34:28.338Z,2.10
2019-03-27T02:35:28.288Z,1.50
2019-03-27T02:36:28.234Z,1.40
2019-03-27T02:37:28.202Z,1.40
2019-03-27T02:38:28.388Z,1.40
2019-03-27T02:39:28.183Z,1.60
2019-03-27T02:40:28.146Z,3.00
2019-03-27T02:41:28.071Z,85.60
2019-03-27T02:42:28.088Z,130.80
2019-03-27T02:43:27.997Z,115.10
2019-03-27T02:44:27.986Z,215.00
2019-03-27T02:45:27.953Z,259.90
2019-03-27T02:46:27.899Z,168.10
2019-03-27T02:47:27.888Z,111.50
2019-03-27T02:48:27.834Z,67.50
2019-03-27T02:49:27.968Z,49.30
2019-03-27T02:50:27.767Z,28.20
2019-03-27T02:51:27.760Z,16.80
2019-03-27T02:52:27.717Z,12.90
2019-03-27T02:53:27.672Z,8.90
2019-03-27T02:54:27.667Z,5.60
2019-03-27T02:55:27.906Z,5.70
2019-03-27T02:56:27.584Z,4.10
2019-03-27T02:57:27.541Z,4.30
2019-03-27T02:58:27.523Z,2.90
2019-03-27T02:59:27.467Z,3.20
2019-03-27T03:00:27.448Z,2.40
2019-03-27T03:01:27.566Z,3.30
2019-03-27T03:02:27.454Z,3.10
2019-03-27T03:03:27.348Z,2.20
2019-03-27T03:04:27.294Z,2.80
2019-03-27T03:05:27.263Z,1.80
2019-03-27T03:06:27.401Z,1.30
2019-03-27T03:07:27.197Z,1.50
2019-03-27T03:08:27.165Z,1.70
2019-03-27T03:09:27.125Z,2.00
2019-03-27T03:10:27.099Z,1.10
2019-03-27T03:11:27.083Z,1.20
2019-03-27T03:12:27.054Z,1.50
2019-03-27T03:13:27.001Z,1.10
2019-03-27T03:14:26.982Z,1.00
2019-03-27T03:15:26.947Z,1.40
2019-03-27T03:16:41.201Z,2.00
2019-03-27T03:17:26.883Z,1.10
2019-03-27T03:18:26.848Z,1.20
2019-03-27T03:19:26.791Z,1.40
2019-03-27T03:20:26.757Z,1.20
2019-03-27T03:21:26.761Z,1.30
2019-03-27T03:22:26.893Z,1.20
2019-03-27T03:23:26.677Z,1.40
2019-03-27T03:24:26.667Z,1.00
2019-03-27T03:25:26.611Z,1.00
2019-03-27T03:26:26.579Z,0.80
2019-03-27T03:27:26.539Z,0.80
2019-03-27T03:28:26.759Z,1.10
2019-03-27T03:29:26.461Z,1.20
2019-03-27T03:30:26.425Z,1.10
2019-03-27T03:31:26.409Z,1.20
2019-03-27T03:32:26.365Z,1.00
2019-03-27T03:33:26.337Z,3.80
2019-03-27T03:34:26.291Z,1.00
2019-03-27T03:35:26.277Z,0.80
2019-03-27T03:36:26.246Z,1.00
2019-03-27T03:37:26.237Z,0.80
2019-03-27T03:38:26.154Z,4.00
2019-03-27T03:39:26.142Z,1.20
2019-03-27T03:40:26.091Z,1.00
2019-03-27T03:41:26.065Z,0.80
2019-03-27T03:42:26.055Z,1.10
2019-03-27T03:43:26.007Z,1.50
2019-03-27T03:44:26.020Z,0.90
2019-03-27T03:45:25.922Z,0.80
2019-03-27T03:46:25.907Z,1.20
2019-03-27T03:47:25.867Z,1.00
2019-03-27T03:48:25.846Z,1.00
2019-03-27T03:49:26.083Z,1.10
2019-03-27T03:50:25.757Z,0.90
2019-03-27T03:51:25.729Z,0.70
2019-03-27T03:52:25.687Z,0.90
2019-03-27T03:53:25.674Z,1.30
2019-03-27T03:54:25.625Z,0.80
2019-03-27T03:55:25.595Z,1.70
2019-03-27T03:56:25.564Z,0.90
2019-03-27T03:57:25.530Z,1.20
2019-03-27T03:58:25.512Z,0.80
2019-03-27T03:59:25.476Z,0.70
2019-03-27T04:00:25.419Z,1.10
2019-03-27T04:01:25.390Z,0.80
2019-03-27T04:02:25.379Z,0.80
2019-03-27T04:03:25.339Z,1.10
2019-03-27T04:04:25.296Z,1.10
2019-03-27T04:05:25.280Z,1.10
2019-03-27T04:06:25.247Z,1.10
2019-03-27T04:07:25.207Z,0.60
2019-03-27T04:08:25.161Z,1.80
2019-03-27T04:09:25.128Z,1.80
2019-03-27T04:10:25.135Z,0.70
2019-03-27T04:11:25.081Z,1.30
2019-03-27T04:12:25.025Z,0.80
2019-03-27T04:13:25.123Z,1.60
2019-03-27T04:14:24.958Z,0.80
2019-03-27T04:15:24.942Z,0.70
2019-03-27T04:16:24.917Z,1.90
2019-03-27T04:17:24.856Z,1.00
2019-03-27T04:18:24.821Z,0.90
2019-03-27T04:19:24.791Z,0.60
2019-03-27T04:20:24.753Z,0.80
2019-03-27T04:22:24.707Z,0.10
2019-03-27T04:23:24.663Z,1.70
2019-03-27T04:24:24.636Z,1.20
2019-03-27T04:25:24.604Z,9.60
2019-03-27T04:26:24.613Z,0.70
2019-03-27T04:27:24.521Z,0.60
2019-03-27T04:28:24.494Z,1.30
2019-03-27T04:29:24.470Z,0.80
2019-03-27T04:30:24.443Z,0.70
2019-03-27T04:31:24.405Z,1.10
2019-03-27T04:32:24.412Z,0.90
2019-03-27T04:33:24.320Z,5.20
2019-03-27T04:34:24.305Z,0.70
2019-03-27T04:35:24.255Z,1.50
2019-03-27T04:36:24.248Z,1.80
2019-03-27T04:37:24.394Z,1.10
2019-03-27T04:38:24.155Z,0.80
2019-03-27T04:39:24.115Z,1.80
2019-03-27T04:40:24.080Z,0.80
2019-03-27T04:41:24.046Z,1.20
2019-03-27T04:42:24.168Z,4.00
2019-03-27T04:43:23.984Z,0.80
2019-03-27T04:44:23.956Z,1.20
2019-03-27T04:45:23.919Z,1.10
2019-03-27T04:46:23.881Z,1.40
2019-03-27T04:47:32.074Z,0.70
2019-03-27T04:48:23.836Z,1.60
2019-03-27T04:49:23.811Z,0.80
2019-03-27T04:50:23.751Z,0.90
2019-03-27T04:51:23.745Z,1.00
2019-03-27T04:52:23.678Z,2.20
2019-03-27T04:53:23.644Z,0.60
2019-03-27T04:54:26.706Z,0.80
2019-03-27T04:55:23.602Z,1.00
2019-03-27T04:56:23.554Z,0.70
2019-03-27T04:57:23.537Z,0.70
2019-03-27T04:58:23.489Z,1.10
2019-03-27T04:59:23.618Z,0.90
2019-03-27T05:00:23.432Z,0.80
2019-03-27T05:01:23.400Z,0.70
2019-03-27T05:02:23.367Z,1.40
2019-03-27T05:03:23.312Z,0.80
2019-03-27T05:04:23.299Z,1.30
2019-03-27T05:05:23.283Z,0.70
2019-03-27T05:06:23.212Z,1.40
2019-03-27T05:07:23.181Z,3.90
2019-03-27T05:08:23.181Z,1.80
2019-03-27T05:09:23.111Z,2.20
2019-03-27T05:10:23.099Z,2.20
2019-03-27T05:11:23.058Z,1.00
2019-03-27T05:12:23.017Z,0.80
2019-03-27T05:13:22.997Z,1.40
2019-03-27T05:14:23.096Z,1.00
2019-03-27T05:15:22.914Z,3.90
2019-03-27T05:16:22.879Z,0.90
2019-03-27T05:17:22.899Z,1.00
2019-03-27T05:18:22.827Z,0.90
2019-03-27T05:19:22.827Z,2.00
2019-03-27T05:20:22.771Z,1.10
2019-03-27T05:21:22.706Z,1.00
2019-03-27T05:22:22.672Z,1.00
2019-03-27T05:23:22.663Z,0.70
2019-03-27T05:24:22.611Z,1.40
2019-03-27T05:25:22.641Z,0.80
2019-03-27T05:26:22.550Z,1.10
2019-03-27T05:27:22.557Z,1.50
2019-03-27T05:28:22.493Z,0.70
2019-03-27T05:29:22.466Z,0.80
2019-03-27T05:30:22.414Z,1.10
2019-03-27T05:31:22.394Z,0.90
2019-03-27T05:32:22.346Z,1.80
2019-03-27T05:33:22.306Z,1.10
2019-03-27T05:34:22.297Z,0.90
2019-03-27T05:35:22.241Z,1.00
2019-03-27T05:36:22.206Z,1.90
2019-03-27T05:37:22.190Z,1.20
2019-03-27T05:38:22.137Z,1.00
2019-03-27T05:39:22.115Z,0.70
2019-03-27T05:40:22.071Z,0.70
2019-03-27T05:41:22.063Z,1.20
2019-03-27T05:42:22.026Z,1.40
2019-03-27T05:43:21.971Z,0.70
2019-03-27T05:44:21.970Z,1.30
2019-03-27T05:45:21.932Z,1.30
2019-03-27T05:46:22.187Z,1.20
2019-03-27T05:47:21.862Z,1.20
2019-03-27T05:48:21.801Z,1.10
2019-03-27T05:49:21.771Z,1.60
2019-03-27T05:50:21.754Z,3.30
2019-03-27T05:51:21.702Z,0.70
2019-03-27T05:52:21.888Z,0.90
2019-03-27T05:53:21.653Z,2.20
2019-03-27T05:54:21.635Z,1.20
2019-03-27T05:55:21.565Z,0.80
2019-03-27T05:56:21.535Z,2.40
2019-03-27T05:57:21.498Z,0.90
2019-03-27T05:58:21.489Z,2.00
2019-03-27T05:59:21.454Z,0.60
2019-03-27T06:00:21.439Z,1.30
2019-03-27T06:01:21.386Z,1.30
2019-03-27T06:02:21.484Z,2.40
2019-03-27T06:03:21.326Z,0.70
2019-03-27T06:04:21.271Z,1.20
2019-03-27T06:05:21.231Z,0.80
2019-03-27T06:06:21.244Z,1.00
2019-03-27T06:07:21.189Z,1.40
2019-03-27T06:08:21.200Z,1.30
2019-03-27T06:09:21.118Z,1.00
2019-03-27T06:10:21.090Z,1.40
2019-03-27T06:11:21.032Z,1.50
2019-03-27T06:12:21.022Z,0.80
2019-03-27T06:13:20.960Z,0.90
2019-03-27T06:14:20.929Z,0.80
2019-03-27T06:15:20.923Z,0.90
2019-03-27T06:16:20.861Z,0.80
2019-03-27T06:17:20.848Z,1.10
2019-03-27T06:18:20.968Z,1.70
2019-03-27T06:19:20.772Z,0.60
2019-03-27T06:20:20.738Z,1.10
2019-03-27T06:21:20.733Z,0.90
2019-03-27T06:22:20.684Z,0.80
2019-03-27T06:23:20.649Z,1.60
2019-03-27T06:24:20.769Z,1.30
2019-03-27T06:25:20.585Z,1.60
2019-03-27T06:26:20.565Z,1.30
2019-03-27T06:27:20.518Z,1.00
2019-03-27T06:28:20.485Z,1.20
2019-03-27T06:29:20.431Z,0.80
2019-03-27T06:30:20.393Z,0.70
2019-03-27T06:31:20.378Z,1.30
2019-03-27T06:32:20.886Z,0.80
2019-03-27T06:33:20.311Z,1.10
2019-03-27T06:34:20.279Z,1.40
2019-03-27T06:35:20.414Z,0.90
2019-03-27T06:36:20.198Z,0.80
2019-03-27T06:37:20.179Z,1.00
2019-03-27T06:38:20.126Z,0.90
2019-03-27T06:39:20.097Z,1.10
2019-03-27T06:40:20.055Z,1.00
2019-03-27T06:41:20.043Z,1.50
2019-03-27T06:42:20.043Z,1.10
2019-03-27T06:43:19.953Z,0.90
2019-03-27T06:44:19.947Z,0.80
2019-03-27T06:45:20.056Z,0.70
2019-03-27T06:46:19.853Z,0.70
2019-03-27T06:47:19.858Z,1.00
2019-03-27T06:48:26.197Z,1.10
2019-03-27T06:49:19.774Z,1.40
2019-03-27T06:50:19.774Z,0.80
2019-03-27T06:51:19.833Z,1.20
2019-03-27T06:52:19.676Z,4.50
2019-03-27T06:53:19.711Z,1.00
2019-03-27T06:54:19.612Z,3.20
2019-03-27T06:55:19.575Z,1.10
2019-03-27T06:56:19.541Z,0.80
2019-03-27T06:57:19.500Z,0.80
2019-03-27T06:58:19.458Z,0.60
2019-03-27T06:59:19.451Z,0.90
2019-03-27T07:00:19.398Z,1.10
2019-03-27T07:01:19.378Z,1.00
2019-03-27T07:02:19.323Z,0.70
2019-03-27T07:03:19.334Z,0.80
2019-03-27T07:04:19.255Z,0.80
2019-03-27T07:05:19.251Z,0.70
2019-03-27T07:06:19.214Z,0.70
2019-03-27T07:07:19.180Z,2.80
2019-03-27T07:08:19.143Z,1.20
2019-03-27T07:09:19.084Z,1.00
2019-03-27T07:10:19.049Z,1.50
2019-03-27T07:11:19.064Z,0.90
2019-03-27T07:12:21.368Z,1.00
2019-03-27T07:13:18.968Z,0.90
2019-03-27T07:14:18.938Z,0.80
2019-03-27T07:15:18.880Z,1.00
2019-03-27T07:16:18.879Z,0.80
2019-03-27T07:17:19.063Z,1.10
2019-03-27T07:18:18.809Z,1.10
2019-03-27T07:19:18.766Z,1.50
2019-03-27T07:20:18.711Z,0.80
2019-03-27T07:21:18.681Z,2.40
2019-03-27T07:22:18.644Z,1.30
2019-03-27T07:23:18.760Z,1.60
2019-03-27T07:24:18.602Z,0.90
2019-03-27T07:25:18.640Z,1.70
2019-03-27T07:26:18.513Z,0.70
2019-03-27T07:27:18.496Z,1.50
2019-03-27T07:28:18.472Z,1.20
2019-03-27T07:29:19.242Z,0.70
2019-03-27T07:30:18.397Z,0.80
2019-03-27T07:31:18.364Z,1.10
2019-03-27T07:32:18.309Z,3.10
2019-03-27T07:33:18.276Z,0.80
2019-03-27T07:34:18.246Z,0.80
2019-03-27T07:35:18.209Z,1.20
2019-03-27T07:36:18.222Z,0.80
2019-03-27T07:37:18.706Z,1.10
2019-03-27T07:38:18.137Z,0.90
2019-03-27T07:39:18.102Z,2.00
2019-03-27T07:40:18.046Z,0.90
2019-03-27T07:41:18.038Z,0.80
2019-03-27T07:42:17.995Z,0.70
2019-03-27T07:43:17.942Z,1.10
2019-03-27T07:44:18.077Z,0.80
2019-03-27T07:45:17.892Z,1.20
2019-03-27T07:46:17.838Z,1.20
2019-03-27T07:47:17.828Z,1.60
2019-03-27T07:48:17.794Z,5.20
2019-03-27T07:49:17.737Z,0.90
2019-03-27T07:50:17.829Z,1.00
2019-03-27T07:51:17.690Z,1.60
2019-03-27T07:52:17.660Z,0.70
2019-03-27T07:53:17.600Z,0.70
2019-03-27T07:54:17.610Z,2.60
2019-03-27T07:55:19.634Z,0.90
2019-03-27T07:56:17.533Z,1.30
2019-03-27T07:57:17.487Z,0.90
2019-03-27T07:58:17.460Z,1.20
2019-03-27T07:59:17.424Z,1.10
2019-03-27T08:00:17.393Z,1.10
2019-03-27T08:01:17.362Z,0.80
2019-03-27T08:02:17.323Z,0.90
2019-03-27T08:03:17.276Z,0.80
2019-03-27T08:04:17.243Z,1.00
2019-03-27T08:05:17.211Z,1.20
2019-03-27T08:06:17.175Z,0.80
2019-03-27T08:07:26.709Z,1.20
2019-03-27T08:08:17.106Z,0.80
2019-03-27T08:09:17.095Z,2.00
2019-03-27T08:10:17.053Z,4.80
2019-03-27T08:11:17.049Z,1.50
2019-03-27T08:12:16.992Z,1.50
2019-03-27T08:13:16.951Z,1.00
2019-03-27T08:14:16.919Z,2.20
2019-03-27T08:15:16.861Z,1.30
2019-03-27T08:16:16.826Z,0.90
2019-03-27T08:17:16.825Z,1.70
2019-03-27T08:18:16.760Z,0.60
2019-03-27T08:19:16.729Z,0.80
2019-03-27T08:20:16.701Z,0.80
2019-03-27T08:21:16.695Z,2.60
2019-03-27T08:22:16.632Z,1.40
2019-03-27T08:23:16.613Z,0.80
2019-03-27T08:24:16.560Z,3.10
2019-03-27T08:25:16.546Z,0.80
2019-03-27T08:26:16.489Z,0.90
2019-03-27T08:27:16.468Z,0.90
2019-03-27T08:28:16.425Z,0.80
2019-03-27T08:29:16.413Z,0.80
2019-03-27T08:30:16.377Z,0.80
2019-03-27T08:31:16.349Z,0.80
2019-03-27T08:32:16.301Z,1.10
2019-03-27T08:33:16.276Z,1.40
2019-03-27T08:34:49.441Z,2.10
2019-03-27T08:35:16.210Z,0.10
2019-03-27T08:36:16.174Z,0.90
2019-03-27T08:37:16.118Z,0.90
2019-03-27T08:38:16.114Z,1.40
2019-03-27T08:39:16.061Z,0.90
2019-03-27T08:40:16.044Z,1.20
2019-03-27T08:41:16.291Z,2.70
2019-03-27T08:42:15.974Z,1.40
2019-03-27T08:43:21.866Z,2.00
2019-03-27T08:44:15.907Z,1.30
2019-03-27T08:45:15.874Z,1.80
2019-03-27T08:46:15.828Z,0.80
2019-03-27T08:47:16.105Z,0.90
2019-03-27T08:48:15.766Z,1.20
2019-03-27T08:49:21.686Z,1.70
2019-03-27T08:50:15.687Z,0.70
2019-03-27T08:51:15.677Z,1.00
2019-03-27T08:52:15.644Z,3.50
2019-03-27T08:53:15.693Z,2.20
2019-03-27T08:54:15.554Z,0.80
2019-03-27T08:55:15.525Z,0.70
2019-03-27T08:56:15.501Z,1.20
2019-03-27T08:57:15.448Z,1.30
2019-03-27T08:58:15.584Z,1.20
2019-03-27T08:59:15.380Z,1.00
2019-03-27T09:00:15.371Z,4.80
2019-03-27T09:01:15.316Z,0.80
2019-03-27T09:02:15.300Z,1.30
2019-03-27T09:03:15.266Z,3.00
2019-03-27T09:04:15.218Z,0.80
2019-03-27T09:05:15.179Z,1.50
2019-03-27T09:06:15.166Z,1.30
2019-03-27T09:07:15.134Z,1.10
2019-03-27T09:08:15.079Z,0.70
2019-03-27T09:09:15.074Z,1.10
2019-03-27T09:10:15.012Z,0.80
2019-03-27T09:11:14.974Z,0.90
2019-03-27T09:12:14.955Z,1.00
2019-03-27T09:13:14.928Z,1.20
2019-03-27T09:14:14.875Z,1.40
2019-03-27T09:15:14.843Z,1.00
2019-03-27T09:16:14.826Z,0.60
2019-03-27T09:17:14.780Z,1.10
2019-03-27T09:18:16.886Z,1.10
2019-03-27T09:19:14.705Z,4.70
2019-03-27T09:20:14.773Z,0.70
2019-03-27T09:21:14.636Z,1.30
2019-03-27T09:22:14.633Z,1.40
2019-03-27T09:23:14.598Z,2.00
2019-03-27T09:24:14.574Z,0.90
2019-03-27T09:25:14.528Z,1.20
2019-03-27T09:26:14.473Z,1.30
2019-03-27T09:27:14.467Z,2.00
2019-03-27T09:28:14.422Z,1.10
2019-03-27T09:29:14.400Z,4.30
2019-03-27T09:30:14.426Z,3.00
2019-03-27T09:31:14.330Z,2.60
2019-03-27T09:32:14.288Z,2.20
2019-03-27T09:33:14.254Z,1.10
2019-03-27T09:34:17.373Z,1.20
2019-03-27T09:35:14.190Z,0.90
2019-03-27T09:36:14.162Z,0.80
2019-03-27T09:37:14.125Z,2.80
2019-03-27T09:38:14.066Z,0.90
2019-03-27T09:39:14.053Z,1.30
2019-03-27T09:40:14.019Z,7.60
2019-03-27T09:41:14.135Z,2.30
2019-03-27T09:42:13.955Z,3.30
2019-03-27T09:43:13.926Z,1.20
2019-03-27T09:44:13.927Z,1.00
2019-03-27T09:45:13.830Z,1.10
2019-03-27T09:46:13.822Z,3.60
2019-03-27T09:47:13.798Z,1.00
2019-03-27T09:48:13.749Z,0.90
2019-03-27T09:49:13.709Z,0.80
2019-03-27T09:50:13.660Z,1.30
2019-03-27T09:51:13.650Z,1.50
2019-03-27T09:52:13.617Z,1.40
2019-03-27T09:53:13.582Z,1.20
2019-03-27T09:54:13.562Z,1.70
2019-03-27T09:55:13.503Z,2.50
2019-03-27T09:56:18.949Z,1.00
2019-03-27T09:57:13.597Z,1.30
2019-03-27T09:58:13.422Z,1.20
2019-03-27T09:59:13.365Z,3.60
2019-03-27T10:00:13.353Z,2.00
2019-03-27T10:01:13.312Z,1.20
2019-03-27T10:02:13.471Z,3.90
2019-03-27T10:03:13.227Z,1.00
2019-03-27T10:04:13.195Z,0.80
2019-03-27T10:05:13.156Z,2.70
2019-03-27T10:06:13.129Z,1.30
2019-03-27T10:07:13.265Z,1.10
2019-03-27T10:08:13.061Z,0.90
2019-03-27T10:09:13.031Z,1.20
2019-03-27T10:10:13.009Z,1.00
2019-03-27T10:11:12.980Z,1.10
2019-03-27T10:12:12.942Z,2.40
2019-03-27T10:13:13.058Z,1.10
2019-03-27T10:14:12.873Z,1.10
2019-03-27T10:15:12.819Z,2.40
2019-03-27T10:16:12.813Z,1.50
2019-03-27T10:17:12.762Z,0.90
2019-03-27T10:18:12.719Z,2.50
2019-03-27T10:19:12.705Z,1.60
2019-03-27T10:20:13.782Z,0.80
2019-03-27T10:21:12.649Z,0.80
2019-03-27T10:22:12.607Z,1.30
2019-03-27T10:23:12.553Z,1.20
2019-03-27T10:24:12.558Z,0.80
2019-03-27T10:25:12.532Z,0.80
2019-03-27T10:26:12.451Z,0.80
2019-03-27T10:27:12.417Z,0.80
2019-03-27T10:28:12.453Z,0.70
2019-03-27T10:29:12.385Z,1.20
2019-03-27T10:30:12.315Z,2.50
2019-03-27T10:31:12.295Z,0.90
2019-03-27T10:32:12.295Z,0.80
2019-03-27T10:33:15.109Z,1.20
2019-03-27T10:34:12.319Z,1.20
2019-03-27T10:35:12.158Z,2.20
2019-03-27T10:36:12.139Z,1.10
2019-03-27T10:37:12.147Z,1.00
2019-03-27T10:38:12.070Z,0.90
2019-03-27T10:39:12.092Z,1.10
2019-03-27T10:40:11.982Z,2.10
2019-03-27T10:41:11.974Z,1.10
2019-03-27T10:42:11.931Z,1.10
2019-03-27T10:43:11.881Z,0.70
2019-03-27T10:44:11.857Z,1.00
2019-03-27T10:45:11.833Z,1.60
2019-03-27T10:46:11.794Z,1.00
2019-03-27T10:47:11.755Z,0.90
2019-03-27T10:48:11.712Z,0.80
2019-03-27T10:49:11.857Z,1.30
2019-03-27T10:50:17.660Z,1.60
2019-03-27T10:51:11.613Z,0.90
2019-03-27T10:52:11.576Z,0.90
2019-03-27T10:53:11.544Z,2.20
2019-03-27T10:54:11.525Z,1.40
2019-03-27T10:55:11.498Z,0.90
2019-03-27T10:56:11.475Z,2.30
2019-03-27T10:57:11.410Z,3.30
2019-03-27T10:58:11.373Z,0.90
2019-03-27T10:59:11.383Z,1.10
2019-03-27T11:00:11.661Z,1.10
2019-03-27T11:01:11.303Z,0.90
2019-03-27T11:02:11.294Z,0.90
2019-03-27T11:03:11.210Z,0.80
2019-03-27T11:04:11.199Z,2.10
2019-03-27T11:05:11.168Z,1.20
2019-03-27T11:06:11.110Z,0.70
2019-03-27T11:07:11.095Z,0.80
2019-03-27T11:08:11.630Z,1.20
2019-03-27T11:09:11.029Z,1.00
2019-03-27T11:10:11.008Z,0.80
2019-03-27T11:11:10.966Z,0.90
2019-03-27T11:12:11.017Z,1.00
2019-03-27T11:13:10.898Z,1.80
2019-03-27T11:14:10.847Z,0.80
2019-03-27T11:15:10.836Z,0.80
2019-03-27T11:16:10.807Z,0.80
2019-03-27T11:17:10.767Z,0.70
2019-03-27T11:18:10.710Z,0.80
2019-03-27T11:19:10.696Z,0.70
2019-03-27T11:20:10.652Z,0.90
2019-03-27T11:21:10.632Z,0.80
2019-03-27T11:22:10.577Z,0.60
2019-03-27T11:23:10.568Z,1.00
2019-03-27T11:24:10.556Z,1.20
2019-03-27T11:25:10.499Z,2.60
2019-03-27T11:26:10.442Z,0.80
2019-03-27T11:27:10.442Z,2.10
2019-03-27T11:28:10.402Z,1.30
2019-03-27T11:29:10.342Z,0.90
2019-03-27T11:30:10.426Z,1.00
2019-03-27T11:31:10.281Z,0.80
2019-03-27T11:32:10.245Z,0.80
2019-03-27T11:33:10.209Z,0.80
2019-03-27T11:34:10.276Z,1.50
2019-03-27T11:35:10.166Z,1.10
2019-03-27T11:36:10.111Z,1.10
2019-03-27T11:37:10.110Z,1.00
2019-03-27T11:38:10.077Z,0.80
2019-03-27T11:39:10.039Z,1.00
2019-03-27T11:40:10.014Z,0.80
2019-03-27T11:41:12.239Z,0.60
2019-03-27T11:42:09.941Z,1.00
2019-03-27T11:43:09.902Z,1.00
2019-03-27T11:44:12.614Z,0.70
2019-03-27T11:45:09.816Z,0.70
2019-03-27T11:46:09.791Z,0.80
2019-03-27T11:47:09.771Z,0.80
2019-03-27T11:48:09.802Z,0.90
2019-03-27T11:49:09.708Z,0.70
2019-03-27T11:50:09.690Z,0.60
2019-03-27T11:51:09.652Z,0.50
2019-03-27T11:52:09.582Z,1.90
2019-03-27T11:53:09.555Z,1.00
2019-03-27T11:54:09.676Z,0.60
2019-03-27T11:55:09.500Z,0.80
2019-03-27T11:56:09.487Z,1.10
2019-03-27T11:57:09.427Z,0.70
2019-03-27T11:58:09.413Z,0.60
2019-03-27T11:59:09.443Z,1.00
2019-03-27T12:00:09.331Z,0.70
2019-03-27T12:01:09.298Z,1.40
2019-03-27T12:02:09.267Z,0.90
2019-03-27T12:03:09.251Z,0.70
2019-03-27T12:04:09.225Z,0.70
2019-03-27T12:05:09.173Z,0.70
2019-03-27T12:06:09.158Z,0.90
2019-03-27T12:07:09.133Z,0.50
2019-03-27T12:08:09.105Z,0.70
2019-03-27T12:09:09.090Z,0.50
2019-03-27T12:10:09.165Z,0.50
2019-03-27T12:11:08.981Z,0.70
2019-03-27T12:12:08.950Z,2.10
2019-03-27T12:13:09.006Z,1.00
2019-03-27T12:14:12.060Z,0.60
2019-03-27T12:15:08.884Z,0.70
2019-03-27T12:16:08.829Z,2.00
2019-03-27T12:17:08.798Z,1.20
2019-03-27T12:18:08.772Z,0.60
2019-03-27T12:19:08.747Z,0.90
2019-03-27T12:20:08.727Z,0.90
2019-03-27T12:21:08.672Z,0.70
2019-03-27T12:22:08.645Z,0.80
2019-03-27T12:23:08.609Z,0.50
2019-03-27T12:24:08.575Z,0.70
2019-03-27T12:25:08.567Z,0.80
2019-03-27T12:26:08.535Z,0.70
2019-03-27T12:27:08.633Z,0.90
2019-03-27T12:28:08.470Z,1.00
2019-03-27T12:29:08.439Z,0.50
2019-03-27T12:30:08.501Z,0.50
2019-03-27T12:31:08.385Z,0.60
2019-03-27T12:32:08.356Z,0.70
2019-03-27T12:33:08.330Z,0.70
2019-03-27T12:34:08.294Z,0.90
2019-03-27T12:35:08.257Z,0.50
2019-03-27T12:36:08.223Z,0.80
2019-03-27T12:37:08.231Z,0.80
2019-03-27T12:38:08.364Z,0.60
2019-03-27T12:39:08.111Z,0.70
2019-03-27T12:40:11.760Z,0.50
2019-03-27T12:41:08.073Z,0.50
2019-03-27T12:42:08.039Z,0.70
2019-03-27T12:43:08.011Z,0.60
2019-03-27T12:44:08.138Z,0.60
2019-03-27T12:45:07.995Z,0.50
2019-03-27T12:46:07.922Z,3.50
2019-03-27T12:47:07.891Z,0.50
2019-03-27T12:48:07.833Z,0.50
2019-03-27T12:49:07.826Z,0.70
2019-03-27T12:50:07.776Z,0.40
2019-03-27T12:51:12.957Z,0.50
2019-03-27T12:52:07.739Z,0.80
2019-03-27T12:53:07.714Z,0.60
2019-03-27T12:54:07.660Z,0.50
2019-03-27T12:55:07.646Z,0.50
2019-03-27T12:56:07.623Z,1.60
2019-03-27T12:57:07.586Z,0.50
2019-03-27T12:58:07.558Z,0.90
2019-03-27T12:59:07.529Z,0.40
2019-03-27T13:00:07.482Z,0.40
2019-03-27T13:01:07.477Z,0.70
2019-03-27T13:02:07.445Z,0.40
2019-03-27T13:03:07.387Z,0.50
2019-03-27T13:04:07.384Z,4.60
2019-03-27T13:05:07.384Z,0.70
2019-03-27T13:06:07.330Z,0.50
2019-03-27T13:07:07.298Z,0.60
2019-03-27T13:08:07.270Z,0.70
2019-03-27T13:09:07.236Z,0.60
2019-03-27T13:10:07.240Z,0.70
2019-03-27T13:11:07.595Z,0.50
2019-03-27T13:12:07.241Z,0.70
2019-03-27T13:13:07.100Z,0.50
2019-03-27T13:14:07.079Z,0.50
2019-03-27T13:15:07.191Z,0.50
2019-03-27T13:16:07.022Z,0.50